createdAt,value
2017-04-01T00:00:39.124Z,20.93
2017-04-01T00:01:39.275Z,20.60
2017-04-01T00:02:39.354Z,19.68
2017-04-01T00:03:39.378Z,20.17
2017-04-01T00:04:39.450Z,18.77
2017-04-01T00:05:40.083Z,20.38
2017-04-01T00:06:40.193Z,20.87
2017-04-01T00:07:40.278Z,18.38
2017-04-01T00:08:40.339Z,18.50
2017-04-01T00:09:40.406Z,20.13
2017-04-01T00:10:40.782Z,19.55
2017-04-01T00:11:42.020Z,20.07
2017-04-01T00:12:42.117Z,17.53
2017-04-01T00:13:42.174Z,19.27
2017-04-01T00:14:43.039Z,19.15
2017-04-01T00:15:44.417Z,20.65
2017-04-01T00:16:44.485Z,21.13
2017-04-01T00:17:44.525Z,20.32
2017-04-01T00:18:45.330Z,19.88
2017-04-01T00:19:45.385Z,19.22
2017-04-01T00:20:45.723Z,20.75
2017-04-01T00:21:45.770Z,19.82
2017-04-01T00:22:45.861Z,20.25
2017-04-01T00:23:45.949Z,20.95
2017-04-01T00:24:46.002Z,20.30
2017-04-01T00:25:46.365Z,19.45
2017-04-01T00:26:46.367Z,20.62
2017-04-01T00:27:46.410Z,20.65
2017-04-01T00:28:46.448Z,19.50
2017-04-01T00:29:46.497Z,20.63
2017-04-01T00:30:46.877Z,20.67
2017-04-01T00:31:46.901Z,19.60
2017-04-01T00:32:46.940Z,21.73
2017-04-01T00:33:47.083Z,18.92
2017-04-01T00:34:47.889Z,21.25
2017-04-01T00:35:48.232Z,20.30
2017-04-01T00:36:48.272Z,20.35
2017-04-01T00:37:48.298Z,20.95
2017-04-01T00:38:48.376Z,19.60
2017-04-01T00:39:48.487Z,21.12
2017-04-01T00:40:48.880Z,21.28
2017-04-01T00:41:49.734Z,20.45
2017-04-01T00:42:49.817Z,20.63
2017-04-01T00:43:49.894Z,22.80
2017-04-01T00:44:50.125Z,20.92
2017-04-01T00:45:50.548Z,21.48
2017-04-01T00:46:50.600Z,23.48
2017-04-01T00:47:50.686Z,21.43
2017-04-01T00:48:50.781Z,22.88
2017-04-01T00:49:50.868Z,22.83
2017-04-01T00:50:51.291Z,23.25
2017-04-01T00:51:51.373Z,21.78
2017-04-01T00:52:51.478Z,23.03
2017-04-01T00:53:51.502Z,22.75
2017-04-01T00:54:51.534Z,24.05
2017-04-01T00:55:51.947Z,24.18
2017-04-01T00:56:52.051Z,24.97
2017-04-01T00:57:52.102Z,24.20
2017-04-01T00:58:52.150Z,24.30
2017-04-01T00:59:52.802Z,22.35
2017-04-01T01:00:53.205Z,21.85
2017-04-01T01:01:53.354Z,21.18
2017-04-01T01:02:53.432Z,25.35
2017-04-01T01:03:54.322Z,22.75
2017-04-01T01:04:54.368Z,22.15
2017-04-01T01:05:54.826Z,23.92
2017-04-01T01:06:54.952Z,22.02
2017-04-01T01:07:55.150Z,21.75
2017-04-01T01:08:55.237Z,21.75
2017-04-01T01:09:55.277Z,22.77
2017-04-01T01:10:55.648Z,22.88
2017-04-01T01:11:55.722Z,22.85
2017-04-01T01:12:55.730Z,22.55
2017-04-01T01:13:55.792Z,20.68
2017-04-01T01:14:55.893Z,20.68
2017-04-01T01:15:56.234Z,21.93
2017-04-01T01:16:56.304Z,23.25
2017-04-01T01:17:56.400Z,22.30
2017-04-01T01:18:56.569Z,22.88
2017-04-01T01:19:56.567Z,20.35
2017-04-01T01:20:56.970Z,22.73
2017-04-01T01:21:57.119Z,22.57
2017-04-01T01:22:57.393Z,22.37
2017-04-01T01:23:57.496Z,22.10
2017-04-01T01:24:57.575Z,22.03
2017-04-01T01:25:57.967Z,19.37
2017-04-01T01:26:57.995Z,21.82
2017-04-01T01:27:58.015Z,24.80
2017-04-01T01:28:57.992Z,22.50
2017-04-01T01:29:58.796Z,21.67
2017-04-01T01:30:59.122Z,22.45
2017-04-01T01:31:59.138Z,23.77
2017-04-01T01:32:59.223Z,21.35
2017-04-01T01:33:59.255Z,22.35
2017-04-01T01:34:59.287Z,20.65
2017-04-01T01:35:59.975Z,22.03
2017-04-01T01:37:00.017Z,22.48
2017-04-01T01:38:00.129Z,22.88
2017-04-01T01:39:00.156Z,22.32
2017-04-01T01:40:00.203Z,24.22
2017-04-01T01:41:01.410Z,22.12
2017-04-01T01:42:01.462Z,24.38
2017-04-01T01:43:01.486Z,24.33
2017-04-01T01:44:01.606Z,24.92
2017-04-01T01:45:01.732Z,24.15
2017-04-01T01:46:02.213Z,23.73
2017-04-01T01:47:02.288Z,24.05
2017-04-01T01:48:02.328Z,24.62
2017-04-01T01:49:02.462Z,24.53
2017-04-01T01:50:03.197Z,24.68
2017-04-01T01:51:03.559Z,23.63
2017-04-01T01:52:03.590Z,24.27
2017-04-01T01:53:03.627Z,24.68
2017-04-01T01:54:03.651Z,24.68
2017-04-01T01:55:03.694Z,25.00
2017-04-01T01:56:04.018Z,23.98
2017-04-01T01:57:04.095Z,23.53
2017-04-01T01:58:04.123Z,24.23
2017-04-01T01:59:04.162Z,23.95
2017-04-01T02:00:04.287Z,25.43
2017-04-01T02:01:04.655Z,24.23
2017-04-01T02:02:04.712Z,24.43
2017-04-01T02:03:04.748Z,23.37
2017-04-01T02:04:04.817Z,25.82
2017-04-01T02:05:04.935Z,24.92
2017-04-01T02:06:05.428Z,23.72
2017-04-01T02:07:05.534Z,24.78
2017-04-01T02:08:05.664Z,24.17
2017-04-01T02:09:06.128Z,23.82
2017-04-01T02:10:06.174Z,24.57
2017-04-01T02:11:06.773Z,25.20
2017-04-01T02:12:06.816Z,23.80
2017-04-01T02:13:06.888Z,25.00
2017-04-01T02:14:07.061Z,25.93
2017-04-01T02:15:07.094Z,26.00
2017-04-01T02:16:08.238Z,26.22
2017-04-01T02:17:08.279Z,23.98
2017-04-01T02:18:08.246Z,24.23
2017-04-01T02:19:08.261Z,26.10
2017-04-01T02:20:08.300Z,26.00
2017-04-01T02:21:08.936Z,23.52
2017-04-01T02:22:08.960Z,25.58
2017-04-01T02:23:09.692Z,24.08
2017-04-01T02:24:09.722Z,26.48
2017-04-01T02:25:09.910Z,23.77
2017-04-01T02:26:11.060Z,24.57
2017-04-01T02:27:11.892Z,27.40
2017-04-01T02:28:12.602Z,25.85
2017-04-01T02:29:12.650Z,24.33
2017-04-01T02:30:12.674Z,24.50
2017-04-01T02:31:13.125Z,24.58
2017-04-01T02:32:13.099Z,25.47
2017-04-01T02:33:13.126Z,27.13
2017-04-01T02:34:13.150Z,25.62
2017-04-01T02:35:13.130Z,25.43
2017-04-01T02:36:13.610Z,25.45
2017-04-01T02:37:13.639Z,27.10
2017-04-01T02:38:13.678Z,23.50
2017-04-01T02:39:13.722Z,23.72
2017-04-01T02:40:13.838Z,24.90
2017-04-01T02:41:14.640Z,24.65
2017-04-01T02:42:14.645Z,25.75
2017-04-01T02:43:14.666Z,25.38
2017-04-01T02:44:14.821Z,26.12
2017-04-01T02:45:14.877Z,24.67
2017-04-01T02:46:15.478Z,25.88
2017-04-01T02:47:15.518Z,24.73
2017-04-01T02:48:15.548Z,24.93
2017-04-01T02:49:15.546Z,24.90
2017-04-01T02:50:16.681Z,24.82
2017-04-01T02:51:17.146Z,25.12
2017-04-01T02:52:17.183Z,25.43
2017-04-01T02:53:17.208Z,23.77
2017-04-01T02:54:17.231Z,22.68
2017-04-01T02:55:17.267Z,25.25
2017-04-01T02:56:17.594Z,25.83
2017-04-01T02:57:17.630Z,25.55
2017-04-01T02:58:17.628Z,25.35
2017-04-01T02:59:17.639Z,23.17
2017-04-01T03:00:18.246Z,23.72
2017-04-01T03:01:18.842Z,24.42
2017-04-01T03:02:18.871Z,24.78
2017-04-01T03:03:19.113Z,24.63
2017-04-01T03:04:19.176Z,23.48
2017-04-01T03:05:19.238Z,23.70
2017-04-01T03:06:19.629Z,25.62
2017-04-01T03:07:19.699Z,25.08
2017-04-01T03:08:19.736Z,24.87
2017-04-01T03:09:19.747Z,25.02
2017-04-01T03:10:19.833Z,24.33
2017-04-01T03:11:20.270Z,23.87
2017-04-01T03:12:20.324Z,24.87
2017-04-01T03:13:20.409Z,23.50
2017-04-01T03:14:20.423Z,24.78
2017-04-01T03:15:20.562Z,25.45
2017-04-01T03:16:21.024Z,23.02
2017-04-01T03:17:21.054Z,24.08
2017-04-01T03:18:21.106Z,24.75
2017-04-01T03:19:21.377Z,25.92
2017-04-01T03:20:21.470Z,25.18
2017-04-01T03:21:21.846Z,23.92
2017-04-01T03:22:21.890Z,24.12
2017-04-01T03:23:22.974Z,27.45
2017-04-01T03:24:25.059Z,25.05
2017-04-01T03:25:25.104Z,23.63
2017-04-01T03:26:25.255Z,23.10
2017-04-01T03:27:25.281Z,25.35
2017-04-01T03:28:26.025Z,24.42
2017-04-01T03:29:26.044Z,23.57
2017-04-01T03:30:26.882Z,25.53
2017-04-01T03:31:27.213Z,23.50
2017-04-01T03:32:27.294Z,23.50
2017-04-01T03:33:28.076Z,24.00
2017-04-01T03:34:28.839Z,24.92
2017-04-01T03:35:29.365Z,24.03
2017-04-01T03:36:29.828Z,25.07
2017-04-01T03:37:29.926Z,26.37
2017-04-01T03:38:29.915Z,24.52
2017-04-01T03:39:30.606Z,24.65
2017-04-01T03:40:30.622Z,24.38
2017-04-01T03:41:30.983Z,24.85
2017-04-01T03:42:31.119Z,24.68
2017-04-01T03:43:31.089Z,25.87
2017-04-01T03:44:31.209Z,25.15
2017-04-01T03:45:31.948Z,23.87
2017-04-01T03:46:35.927Z,24.67
2017-04-01T03:47:35.948Z,25.28
2017-04-01T03:48:35.982Z,23.28
2017-04-01T03:49:35.998Z,26.15
2017-04-01T03:50:36.795Z,24.48
2017-04-01T03:51:37.902Z,23.15
2017-04-01T03:52:38.427Z,24.52
2017-04-01T03:53:38.439Z,24.58
2017-04-01T03:54:38.500Z,24.23
2017-04-01T03:55:38.520Z,24.75
2017-04-01T03:56:38.870Z,25.00
2017-04-01T03:57:39.577Z,24.77
2017-04-01T03:58:40.501Z,24.97
2017-04-01T03:59:40.504Z,25.32
2017-04-01T04:00:40.578Z,24.18
2017-04-01T04:01:40.962Z,25.72
2017-04-01T04:02:40.968Z,26.80
2017-04-01T04:03:41.183Z,24.65
2017-04-01T04:04:41.250Z,26.90
2017-04-01T04:05:41.287Z,25.42
2017-04-01T04:06:41.703Z,24.55
2017-04-01T04:07:41.769Z,24.32
2017-04-01T04:08:41.806Z,25.85
2017-04-01T04:09:41.829Z,24.08
2017-04-01T04:10:41.967Z,24.33
2017-04-01T04:11:42.324Z,26.68
2017-04-01T04:12:42.370Z,27.97
2017-04-01T04:13:42.543Z,25.45
2017-04-01T04:14:42.671Z,25.22
2017-04-01T04:15:44.082Z,24.37
2017-04-01T04:16:48.048Z,25.08
2017-04-01T04:17:48.706Z,22.85
2017-04-01T04:18:49.526Z,25.43
2017-04-01T04:19:49.609Z,23.77
2017-04-01T04:20:49.606Z,24.28
2017-04-01T04:21:49.993Z,26.18
2017-04-01T04:22:49.974Z,24.17
2017-04-01T04:23:50.016Z,23.35
2017-04-01T04:24:50.017Z,24.90
2017-04-01T04:25:50.752Z,22.27
2017-04-01T04:26:51.482Z,23.15
2017-04-01T04:27:51.494Z,23.65
2017-04-01T04:28:51.546Z,22.22
2017-04-01T04:29:51.487Z,25.57
2017-04-01T04:30:51.546Z,22.83
2017-04-01T04:31:51.870Z,22.60
2017-04-01T04:32:52.072Z,22.42
2017-04-01T04:33:52.114Z,23.30
2017-04-01T04:34:53.030Z,23.50
2017-04-01T04:35:53.083Z,24.72
2017-04-01T04:36:53.464Z,26.07
2017-04-01T04:37:54.263Z,23.57
2017-04-01T04:38:54.303Z,24.70
2017-04-01T04:39:54.321Z,24.48
2017-04-01T04:40:54.367Z,23.67
2017-04-01T04:41:54.828Z,24.07
2017-04-01T04:42:54.875Z,24.42
2017-04-01T04:43:54.967Z,24.37
2017-04-01T04:44:55.010Z,24.22
2017-04-01T04:45:55.148Z,24.87
2017-04-01T04:46:56.975Z,24.92
2017-04-01T04:47:57.142Z,24.58
2017-04-01T04:48:57.257Z,24.83
2017-04-01T04:49:57.551Z,21.30
2017-04-01T04:50:57.566Z,25.10
2017-04-01T04:51:58.065Z,24.07
2017-04-01T04:52:58.217Z,23.65
2017-04-01T04:53:58.343Z,23.48
2017-04-01T04:54:58.399Z,23.70
2017-04-01T04:55:58.490Z,25.02
2017-04-01T04:56:58.918Z,23.20
2017-04-01T04:57:59.671Z,23.95
2017-04-01T04:58:59.696Z,24.58
2017-04-01T04:59:59.733Z,22.28
2017-04-01T05:00:59.775Z,23.78
2017-04-01T05:02:00.154Z,23.40
2017-04-01T05:03:00.204Z,23.95
2017-04-01T05:04:00.286Z,23.52
2017-04-01T05:05:00.309Z,23.70
2017-04-01T05:06:00.424Z,23.23
2017-04-01T05:07:00.949Z,23.68
2017-04-01T05:08:01.009Z,24.10
2017-04-01T05:09:01.174Z,23.38
2017-04-01T05:10:01.319Z,24.03
2017-04-01T05:11:01.345Z,22.58
2017-04-01T05:12:01.770Z,24.92
2017-04-01T05:13:02.398Z,25.45
2017-04-01T05:14:03.205Z,23.62
2017-04-01T05:15:03.212Z,24.53
2017-04-01T05:16:03.246Z,25.47
2017-04-01T05:17:03.558Z,24.35
2017-04-01T05:18:03.615Z,24.22
2017-04-01T05:19:03.644Z,22.77
2017-04-01T05:20:03.670Z,23.20
2017-04-01T05:21:04.534Z,23.58
2017-04-01T05:22:05.244Z,24.87
2017-04-01T05:23:05.454Z,25.17
2017-04-01T05:24:05.471Z,23.92
2017-04-01T05:25:05.503Z,24.52
2017-04-01T05:26:05.536Z,25.05
2017-04-01T05:27:05.858Z,23.53
2017-04-01T05:28:17.333Z,23.72
2017-04-01T05:29:17.370Z,24.02
2017-04-01T05:30:20.702Z,23.58
2017-04-01T05:31:20.705Z,24.53
2017-04-01T05:32:20.694Z,25.03
2017-04-01T05:33:20.865Z,23.98
2017-04-01T05:34:20.935Z,27.00
2017-04-01T05:35:20.983Z,26.07
2017-04-01T05:36:20.310Z,23.28
2017-04-01T05:37:21.507Z,23.95
2017-04-01T05:38:22.332Z,24.42
2017-04-01T05:39:23.093Z,24.73
2017-04-01T05:40:23.136Z,24.93
2017-04-01T05:41:23.164Z,25.73
2017-04-01T05:42:23.570Z,26.08
2017-04-01T05:43:23.618Z,23.37
2017-04-01T05:44:23.659Z,25.80
2017-04-01T05:45:23.758Z,24.03
2017-04-01T05:46:24.010Z,26.63
2017-04-01T05:47:24.514Z,25.80
2017-04-01T05:48:24.584Z,24.72
2017-04-01T05:49:24.629Z,26.35
2017-04-01T05:50:24.654Z,25.03
2017-04-01T05:51:26.095Z,26.38
2017-04-01T05:52:26.521Z,25.30
2017-04-01T05:53:27.314Z,26.82
2017-04-01T05:54:27.342Z,25.40
2017-04-01T05:55:28.152Z,28.17
2017-04-01T05:56:28.215Z,28.07
2017-04-01T05:57:28.698Z,27.05
2017-04-01T05:58:28.696Z,25.27
2017-04-01T05:59:28.742Z,26.52
2017-04-01T06:00:29.950Z,25.52
2017-04-01T06:01:29.986Z,27.05
2017-04-01T06:02:30.531Z,26.00
2017-04-01T06:03:30.666Z,25.58
2017-04-01T06:04:30.806Z,25.42
2017-04-01T06:05:30.869Z,25.88
2017-04-01T06:06:30.882Z,24.72
2017-04-01T06:07:31.503Z,26.23
2017-04-01T06:08:31.512Z,24.40
2017-04-01T06:09:31.535Z,25.02
2017-04-01T06:10:31.589Z,23.45
2017-04-01T06:11:31.894Z,24.25
2017-04-01T06:12:32.298Z,24.60
2017-04-01T06:13:33.369Z,23.78
2017-04-01T06:14:33.451Z,25.25
2017-04-01T06:15:33.431Z,24.02
2017-04-01T06:16:33.457Z,25.10
2017-04-01T06:17:34.055Z,24.48
2017-04-01T06:18:34.070Z,25.42
2017-04-01T06:19:34.781Z,24.57
2017-04-01T06:20:34.858Z,24.42
2017-04-01T06:21:34.951Z,25.62
2017-04-01T06:22:35.044Z,22.38
2017-04-01T06:23:35.242Z,25.08
2017-04-01T06:24:37.319Z,25.38
2017-04-01T06:25:38.587Z,25.15
2017-04-01T06:26:40.255Z,24.55
2017-04-01T06:27:40.658Z,25.13
2017-04-01T06:28:41.995Z,25.20
2017-04-01T06:29:42.281Z,23.63
2017-04-01T06:30:42.398Z,24.27
2017-04-01T06:31:42.483Z,24.65
2017-04-01T06:32:42.818Z,25.02
2017-04-01T06:33:43.585Z,25.82
2017-04-01T06:34:43.673Z,27.13
2017-04-01T06:35:43.662Z,23.67
2017-04-01T06:36:43.710Z,24.35
2017-04-01T06:37:44.110Z,25.13
2017-04-01T06:38:45.468Z,23.15
2017-04-01T06:39:45.516Z,24.73
2017-04-01T06:40:45.586Z,23.58
2017-04-01T06:41:45.631Z,23.98
2017-04-01T06:42:45.960Z,23.80
2017-04-01T06:43:46.537Z,25.45
2017-04-01T06:44:46.556Z,25.78
2017-04-01T06:45:46.845Z,24.25
2017-04-01T06:46:46.854Z,28.63
2017-04-01T06:47:47.226Z,25.60
2017-04-01T06:48:47.937Z,23.97
2017-04-01T06:49:48.010Z,25.78
2017-04-01T06:50:48.035Z,21.93
2017-04-01T06:51:48.364Z,24.23
2017-04-01T06:52:48.805Z,24.43
2017-04-01T06:53:48.949Z,25.32
2017-04-01T06:54:49.733Z,24.27
2017-04-01T06:55:49.787Z,22.72
2017-04-01T06:56:50.010Z,22.98
2017-04-01T06:57:50.687Z,22.87
2017-04-01T06:58:50.914Z,23.95
2017-04-01T06:59:51.362Z,24.87
2017-04-01T07:00:51.366Z,24.63
2017-04-01T07:01:51.428Z,24.70
2017-04-01T07:02:51.755Z,21.27
2017-04-01T07:03:51.870Z,23.97
2017-04-01T07:04:51.911Z,21.48
2017-04-01T07:05:51.952Z,23.10
2017-04-01T07:06:52.735Z,22.47
2017-04-01T07:07:53.187Z,22.55
2017-04-01T07:08:53.212Z,22.40
2017-04-01T07:09:53.234Z,24.10
2017-04-01T07:10:53.452Z,23.22
2017-04-01T07:11:53.490Z,22.98
2017-04-01T07:12:54.041Z,22.92
2017-04-01T07:13:54.138Z,21.68
2017-04-01T07:14:54.251Z,23.52
2017-04-01T07:15:54.360Z,24.73
2017-04-01T07:16:54.697Z,23.02
2017-04-01T07:17:55.003Z,21.35
2017-04-01T07:18:55.815Z,21.08
2017-04-01T07:19:55.865Z,23.03
2017-04-01T07:20:56.082Z,20.88
2017-04-01T07:21:57.006Z,23.67
2017-04-01T07:22:57.412Z,21.22
2017-04-01T07:23:57.475Z,21.17
2017-04-01T07:24:57.531Z,21.77
2017-04-01T07:25:57.832Z,21.98
2017-04-01T07:26:58.239Z,21.62
2017-04-01T07:27:59.026Z,20.30
2017-04-01T07:28:59.167Z,21.15
2017-04-01T07:29:59.216Z,20.40
2017-04-01T07:30:59.257Z,21.83
2017-04-01T07:31:59.341Z,20.38
2017-04-01T07:33:00.836Z,20.50
2017-04-01T07:34:00.823Z,20.60
2017-04-01T07:35:00.975Z,21.10
2017-04-01T07:36:01.007Z,20.88
2017-04-01T07:37:01.075Z,20.42
2017-04-01T07:38:01.120Z,17.98
2017-04-01T07:39:01.204Z,18.37
2017-04-01T07:40:01.423Z,18.10
2017-04-01T07:41:01.509Z,20.28
2017-04-01T07:42:01.580Z,18.47
2017-04-01T07:43:01.813Z,13.63
2017-04-01T07:44:02.250Z,15.97
2017-04-01T07:45:02.424Z,14.83
2017-04-01T07:46:02.629Z,14.45
2017-04-01T07:47:02.795Z,15.25
2017-04-01T07:48:02.855Z,13.02
2017-04-01T07:49:03.334Z,16.02
2017-04-01T07:50:03.474Z,14.27
2017-04-01T07:51:03.630Z,14.50
2017-04-01T07:52:03.640Z,16.15
2017-04-01T07:53:03.713Z,13.62
2017-04-01T07:54:04.161Z,13.70
2017-04-01T07:55:04.216Z,12.63
2017-04-01T07:56:04.265Z,12.58
2017-04-01T07:57:04.423Z,13.53
2017-04-01T07:58:04.460Z,13.27
2017-04-01T07:59:04.916Z,12.35
2017-04-01T08:00:04.950Z,12.23
2017-04-01T08:01:05.048Z,11.98
2017-04-01T08:02:05.122Z,11.80
2017-04-01T08:03:05.229Z,12.12
2017-04-01T08:04:06.268Z,13.05
2017-04-01T08:05:06.367Z,12.67
2017-04-01T08:06:06.435Z,12.87
2017-04-01T08:07:06.483Z,12.47
2017-04-01T08:08:06.613Z,10.63
2017-04-01T08:09:07.157Z,13.05
2017-04-01T08:10:07.221Z,10.33
2017-04-01T08:11:07.798Z,11.05
2017-04-01T08:12:08.360Z,12.92
2017-04-01T08:13:11.259Z,11.38
2017-04-01T08:14:12.485Z,10.62
2017-04-01T08:15:12.589Z,10.28
2017-04-01T08:16:12.716Z,10.53
2017-04-01T08:17:12.759Z,10.80
2017-04-01T08:18:12.806Z,10.35
2017-04-01T08:19:13.169Z,11.13
2017-04-01T08:20:13.503Z,11.48
2017-04-01T08:21:13.673Z,11.17
2017-04-01T08:22:13.716Z,10.05
2017-04-01T08:23:14.891Z,10.23
2017-04-01T08:24:15.475Z,10.90
2017-04-01T08:25:15.889Z,11.03
2017-04-01T08:26:15.952Z,10.27
2017-04-01T08:27:16.166Z,8.60
2017-04-01T08:28:16.294Z,8.90
2017-04-01T08:29:16.869Z,9.03
2017-04-01T08:30:16.939Z,9.30
2017-04-01T08:31:17.974Z,9.20
2017-04-01T08:32:18.044Z,7.88
2017-04-01T08:33:18.257Z,9.00
2017-04-01T08:34:18.883Z,8.10
2017-04-01T08:35:19.064Z,9.27
2017-04-01T08:36:19.194Z,9.13
2017-04-01T08:37:19.283Z,9.82
2017-04-01T08:38:19.339Z,9.10
2017-04-01T08:39:19.802Z,9.50
2017-04-01T08:40:19.833Z,10.53
2017-04-01T08:41:19.925Z,11.40
2017-04-01T08:42:20.082Z,13.98
2017-04-01T08:43:20.143Z,13.20
2017-04-01T08:44:20.658Z,13.37
2017-04-01T08:45:20.752Z,13.10
2017-04-01T08:46:20.858Z,12.87
2017-04-01T08:47:20.943Z,12.33
2017-04-01T08:48:21.014Z,11.97
2017-04-01T08:49:21.409Z,11.35
2017-04-01T08:50:21.522Z,13.37
2017-04-01T08:51:21.575Z,12.63
2017-04-01T08:52:21.649Z,13.17
2017-04-01T08:53:21.717Z,11.82
2017-04-01T08:54:22.132Z,12.98
2017-04-01T08:55:22.259Z,12.98
2017-04-01T08:56:22.294Z,12.82
2017-04-01T08:57:22.581Z,12.85
2017-04-01T08:58:22.670Z,11.40
2017-04-01T08:59:23.114Z,12.98
2017-04-01T09:00:23.350Z,12.53
2017-04-01T09:01:23.437Z,10.97
2017-04-01T09:02:23.744Z,8.83
2017-04-01T09:03:23.787Z,10.92
2017-04-01T09:04:24.374Z,10.58
2017-04-01T09:05:24.512Z,10.80
2017-04-01T09:06:24.579Z,11.67
2017-04-01T09:07:24.667Z,10.77
2017-04-01T09:08:24.787Z,11.15
2017-04-01T09:09:25.423Z,11.08
2017-04-01T09:10:25.499Z,11.90
2017-04-01T09:11:26.406Z,10.55
2017-04-01T09:12:26.460Z,10.35
2017-04-01T09:13:26.524Z,10.35
2017-04-01T09:14:27.005Z,9.72
2017-04-01T09:15:27.083Z,9.32
2017-04-01T09:16:27.210Z,10.08
2017-04-01T09:17:28.446Z,9.65
2017-04-01T09:18:28.491Z,9.72
2017-04-01T09:19:29.058Z,9.88
2017-04-01T09:20:29.109Z,8.38
2017-04-01T09:21:29.403Z,9.62
2017-04-01T09:22:29.614Z,8.20
2017-04-01T09:23:29.674Z,8.48
2017-04-01T09:24:30.047Z,9.55
2017-04-01T09:25:30.205Z,8.23
2017-04-01T09:26:30.310Z,8.08
2017-04-01T09:27:30.415Z,6.08
2017-04-01T09:28:30.652Z,5.53
2017-04-01T09:29:31.921Z,5.68
2017-04-01T09:30:32.163Z,5.33
2017-04-01T09:31:32.268Z,5.48
2017-04-01T09:32:32.329Z,6.07
2017-04-01T09:33:33.217Z,5.93
2017-04-01T09:34:33.576Z,5.75
2017-04-01T09:35:34.840Z,4.40
2017-04-01T09:36:34.987Z,4.20
2017-04-01T09:37:35.137Z,4.52
2017-04-01T09:38:35.244Z,4.53
2017-04-01T09:39:35.552Z,4.23
2017-04-01T09:40:36.758Z,3.85
2017-04-01T09:41:36.836Z,3.78
2017-04-01T09:42:36.915Z,4.97
2017-04-01T09:43:37.072Z,5.32
2017-04-01T09:44:37.407Z,4.55
2017-04-01T09:45:37.587Z,5.02
2017-04-01T09:46:37.641Z,4.88
2017-04-01T09:47:37.685Z,5.15
2017-04-01T09:48:37.736Z,6.07
2017-04-01T09:49:38.166Z,5.05
2017-04-01T09:50:38.202Z,4.15
2017-04-01T09:51:38.210Z,4.57
2017-04-01T09:52:38.218Z,4.95
2017-04-01T09:53:38.190Z,5.13
2017-04-01T09:54:38.613Z,5.35
2017-04-01T09:55:39.402Z,4.78
2017-04-01T09:56:39.461Z,4.42
2017-04-01T09:57:39.519Z,3.97
2017-04-01T09:58:39.765Z,4.78
2017-04-01T09:59:40.184Z,3.48
2017-04-01T10:00:40.337Z,4.87
2017-04-01T10:01:40.409Z,4.32
2017-04-01T10:02:40.588Z,4.10
2017-04-01T10:03:41.148Z,4.27
2017-04-01T10:04:41.650Z,5.68
2017-04-01T10:05:41.900Z,5.05
2017-04-01T10:06:42.034Z,6.23
2017-04-01T10:07:42.110Z,6.35
2017-04-01T10:08:42.200Z,6.42
2017-04-01T10:09:42.586Z,6.18
2017-04-01T10:10:43.482Z,4.47
2017-04-01T10:11:43.588Z,5.78
2017-04-01T10:12:43.595Z,6.75
2017-04-01T10:13:43.663Z,6.48
2017-04-01T10:14:44.051Z,7.03
2017-04-01T10:15:44.086Z,6.05
2017-04-01T10:16:44.178Z,5.83
2017-04-01T10:17:44.213Z,6.30
2017-04-01T10:18:44.288Z,6.17
2017-04-01T10:19:44.815Z,6.10
2017-04-01T10:20:44.941Z,7.20
2017-04-01T10:21:45.034Z,6.48
2017-04-01T10:22:45.117Z,7.12
2017-04-01T10:23:45.173Z,7.63
2017-04-01T10:24:45.553Z,6.28
2017-04-01T10:25:45.731Z,6.60
2017-04-01T10:26:45.790Z,6.48
2017-04-01T10:27:45.824Z,7.38
2017-04-01T10:28:45.885Z,6.43
2017-04-01T10:29:46.992Z,6.60
2017-04-01T10:30:47.154Z,7.32
2017-04-01T10:31:47.835Z,5.95
2017-04-01T10:32:47.938Z,7.32
2017-04-01T10:33:48.063Z,6.58
2017-04-01T10:34:48.497Z,8.37
2017-04-01T10:35:49.352Z,7.55
2017-04-01T10:36:49.433Z,8.07
2017-04-01T10:37:49.506Z,8.32
2017-04-01T10:38:49.694Z,7.80
2017-04-01T10:39:51.141Z,7.80
2017-04-01T10:40:51.194Z,7.60
2017-04-01T10:41:51.363Z,7.73
2017-04-01T10:42:51.601Z,7.92
2017-04-01T10:43:51.736Z,7.70
2017-04-01T10:44:52.245Z,6.87
2017-04-01T10:45:52.319Z,7.60
2017-04-01T10:46:52.436Z,9.13
2017-04-01T10:47:52.566Z,8.47
2017-04-01T10:48:52.784Z,8.05
2017-04-01T10:49:53.309Z,7.17
2017-04-01T10:50:53.412Z,7.98
2017-04-01T10:51:53.493Z,7.83
2017-04-01T10:52:53.588Z,9.08
2017-04-01T10:53:53.758Z,9.37
2017-04-01T10:54:54.253Z,8.70
2017-04-01T10:55:54.433Z,8.55
2017-04-01T10:56:54.536Z,9.28
2017-04-01T10:57:54.631Z,9.13
2017-04-01T10:58:54.686Z,9.15
2017-04-01T10:59:55.938Z,9.38
2017-04-01T11:00:56.104Z,10.02
2017-04-01T11:01:56.918Z,9.43
2017-04-01T11:02:57.132Z,8.43
2017-04-01T11:03:57.181Z,9.38
2017-04-01T11:04:57.756Z,8.58
2017-04-01T11:05:57.787Z,9.80
2017-04-01T11:06:57.825Z,9.33
2017-04-01T11:07:57.886Z,7.63
2017-04-01T11:08:57.955Z,8.98
2017-04-01T11:09:58.443Z,8.50
2017-04-01T11:10:58.612Z,9.15
2017-04-01T11:11:58.699Z,8.15
2017-04-01T11:12:58.797Z,8.68
2017-04-01T11:13:58.894Z,8.62
2017-04-01T11:14:59.349Z,8.73
2017-04-01T11:15:59.431Z,8.17
2017-04-01T11:16:59.536Z,10.08
2017-04-01T11:17:59.883Z,9.42
2017-04-01T11:19:00.114Z,11.70
2017-04-01T11:20:00.506Z,9.63
2017-04-01T11:21:00.671Z,9.87
2017-04-01T11:22:00.858Z,10.15
2017-04-01T11:23:00.958Z,11.25
2017-04-01T11:24:01.061Z,9.75
2017-04-01T11:25:01.511Z,9.65
2017-04-01T11:26:01.542Z,10.98
2017-04-01T11:27:01.558Z,12.37
2017-04-01T11:28:01.635Z,13.02
2017-04-01T11:29:02.492Z,13.33
2017-04-01T11:30:02.931Z,13.20
2017-04-01T11:31:02.991Z,13.60
2017-04-01T11:32:03.048Z,12.37
2017-04-01T11:33:03.096Z,13.52
2017-04-01T11:34:03.151Z,12.27
2017-04-01T11:35:03.666Z,12.03
2017-04-01T11:36:03.786Z,12.93
2017-04-01T11:37:03.857Z,14.07
2017-04-01T11:38:03.945Z,15.25
2017-04-01T11:39:05.098Z,14.23
2017-04-01T11:40:05.555Z,15.53
2017-04-01T11:41:06.440Z,15.72
2017-04-01T11:42:06.527Z,14.65
2017-04-01T11:43:07.338Z,13.27
2017-04-01T11:44:08.177Z,15.53
2017-04-01T11:45:08.582Z,15.83
2017-04-01T11:46:08.820Z,16.20
2017-04-01T11:47:08.899Z,15.68
2017-04-01T11:48:08.982Z,16.90
2017-04-01T11:49:09.066Z,18.72
2017-04-01T11:50:09.459Z,17.57
2017-04-01T11:51:09.470Z,19.82
2017-04-01T11:52:09.473Z,19.03
2017-04-01T11:53:09.495Z,16.77
2017-04-01T11:54:09.534Z,18.30
2017-04-01T11:55:10.107Z,17.35
2017-04-01T11:56:10.215Z,17.42
2017-04-01T11:57:10.255Z,18.23
2017-04-01T11:58:10.474Z,19.53
2017-04-01T11:59:10.625Z,18.28
2017-04-01T12:00:11.758Z,15.73
2017-04-01T12:01:11.804Z,17.13
2017-04-01T12:02:11.941Z,18.12
2017-04-01T12:03:11.981Z,19.93
2017-04-01T12:04:12.033Z,19.60
2017-04-01T12:05:12.507Z,18.52
2017-04-01T12:06:12.651Z,18.68
2017-04-01T12:07:12.770Z,18.25
2017-04-01T12:08:12.889Z,21.10
2017-04-01T12:09:12.847Z,17.73
2017-04-01T12:10:13.266Z,17.25
2017-04-01T12:11:13.285Z,17.32
2017-04-01T12:12:13.538Z,17.10
2017-04-01T12:13:13.666Z,17.68
2017-04-01T12:14:13.762Z,15.78
2017-04-01T12:15:14.342Z,16.05
2017-04-01T12:16:14.405Z,15.40
2017-04-01T12:17:14.540Z,15.50
2017-04-01T12:18:15.332Z,15.63
2017-04-01T12:19:15.426Z,16.20
2017-04-01T12:20:15.834Z,16.35
2017-04-01T12:21:16.033Z,15.80
2017-04-01T12:22:16.293Z,16.37
2017-04-01T12:23:16.343Z,15.27
2017-04-01T12:24:16.586Z,14.82
2017-04-01T12:25:16.988Z,15.50
2017-04-01T12:26:17.111Z,15.60
2017-04-01T12:27:17.267Z,13.12
2017-04-01T12:28:17.407Z,12.88
2017-04-01T12:29:17.509Z,14.68
2017-04-01T12:30:18.745Z,13.77
2017-04-01T12:31:18.873Z,14.22
2017-04-01T12:32:18.933Z,13.70
2017-04-01T12:33:19.305Z,14.37
2017-04-01T12:34:19.329Z,13.98
2017-04-01T12:35:19.701Z,13.53
2017-04-01T12:36:19.787Z,14.23
2017-04-01T12:37:19.887Z,14.00
2017-04-01T12:38:20.975Z,14.58
2017-04-01T12:39:21.029Z,13.17
2017-04-01T12:40:21.563Z,13.23
2017-04-01T12:41:21.623Z,14.13
2017-04-01T12:42:21.721Z,13.73
2017-04-01T12:43:21.761Z,14.47
2017-04-01T12:44:21.979Z,14.15
2017-04-01T12:45:22.808Z,14.78
2017-04-01T12:46:22.875Z,14.18
2017-04-01T12:47:22.959Z,13.95
2017-04-01T12:48:23.007Z,13.83
2017-04-01T12:49:23.022Z,15.73
2017-04-01T12:50:23.553Z,13.95
2017-04-01T12:51:23.572Z,14.73
2017-04-01T12:52:23.660Z,13.65
2017-04-01T12:53:23.789Z,12.23
2017-04-01T12:54:23.810Z,14.25
2017-04-01T12:55:24.311Z,14.62
2017-04-01T12:56:24.409Z,13.62
2017-04-01T12:57:24.495Z,14.23
2017-04-01T12:58:24.926Z,15.85
2017-04-01T12:59:24.996Z,14.53
2017-04-01T13:00:25.385Z,14.08
2017-04-01T13:01:25.434Z,15.52